createdAt,value
2017-08-06T00:00:38.234Z,10.37
2017-08-06T00:03:07.141Z,9.23
2017-08-06T00:05:36.055Z,10.17
2017-08-06T00:08:04.940Z,9.40
2017-08-06T00:10:33.848Z,10.50
2017-08-06T00:13:02.736Z,8.93
2017-08-06T00:15:31.626Z,9.97
2017-08-06T00:18:00.515Z,9.93
2017-08-06T00:20:29.435Z,8.53
2017-08-06T00:22:58.335Z,8.80
2017-08-06T00:25:27.248Z,9.60
2017-08-06T00:27:56.122Z,8.57
2017-08-06T00:30:25.012Z,9.13
2017-08-06T00:32:53.887Z,11.10
2017-08-06T00:35:22.794Z,8.87
2017-08-06T00:37:51.684Z,9.10
2017-08-06T00:40:20.588Z,9.97
2017-08-06T00:42:49.474Z,9.43
2017-08-06T00:45:18.359Z,10.80
2017-08-06T00:47:47.251Z,10.40
2017-08-06T00:50:16.128Z,9.90
2017-08-06T00:52:45.075Z,8.37
2017-08-06T00:55:13.998Z,8.83
2017-08-06T00:57:42.885Z,9.33
2017-08-06T01:00:11.758Z,9.13
2017-08-06T01:02:40.645Z,9.33
2017-08-06T01:05:09.527Z,8.93
2017-08-06T01:07:38.414Z,8.50
2017-08-06T01:10:07.291Z,8.87
2017-08-06T01:12:36.181Z,8.57
2017-08-06T01:15:05.076Z,9.30
2017-08-06T01:17:33.980Z,8.87
2017-08-06T01:20:02.865Z,9.03
2017-08-06T01:22:31.772Z,11.17
2017-08-06T01:25:00.668Z,10.30
2017-08-06T01:27:29.565Z,9.27
2017-08-06T01:29:58.437Z,10.03
2017-08-06T01:32:27.331Z,9.83
2017-08-06T01:34:56.225Z,8.70
2017-08-06T01:37:25.121Z,8.83
2017-08-06T01:39:54.023Z,10.00
2017-08-06T01:42:22.899Z,9.67
2017-08-06T01:44:51.802Z,11.00
2017-08-06T01:47:20.690Z,9.57
2017-08-06T01:49:49.630Z,9.33
2017-08-06T01:52:18.531Z,9.97
2017-08-06T01:54:47.440Z,8.73
2017-08-06T01:57:16.329Z,12.97
2017-08-06T01:59:45.226Z,8.83
2017-08-06T02:02:14.116Z,10.67
2017-08-06T02:04:43.024Z,10.30
2017-08-06T02:07:11.906Z,9.13
2017-08-06T02:09:40.814Z,10.00
2017-08-06T02:12:09.677Z,9.53
2017-08-06T02:14:38.569Z,10.70
2017-08-06T02:17:07.433Z,10.10
2017-08-06T02:19:36.326Z,10.80
2017-08-06T02:22:05.204Z,9.90
2017-08-06T02:24:34.102Z,10.13
2017-08-06T02:27:02.978Z,11.23
2017-08-06T02:29:31.881Z,11.47
2017-08-06T02:32:00.763Z,10.63
2017-08-06T02:34:29.665Z,10.40
2017-08-06T02:36:58.537Z,10.63
2017-08-06T02:39:27.439Z,9.50
2017-08-06T02:41:56.335Z,11.63
2017-08-06T02:44:25.237Z,11.43
2017-08-06T02:46:54.127Z,10.07
2017-08-06T02:49:23.039Z,10.90
2017-08-06T02:51:51.927Z,10.60
2017-08-06T02:54:20.817Z,10.20
2017-08-06T02:56:49.716Z,12.10
2017-08-06T02:59:18.599Z,10.57
2017-08-06T03:01:47.495Z,10.37
2017-08-06T03:04:16.374Z,10.47
2017-08-06T03:06:45.262Z,10.03
2017-08-06T03:09:14.150Z,11.33
2017-08-06T03:11:43.045Z,13.37
2017-08-06T03:14:11.940Z,11.43
2017-08-06T03:16:40.846Z,12.53
2017-08-06T03:19:09.754Z,11.83
2017-08-06T03:21:38.674Z,12.80
2017-08-06T03:24:07.570Z,11.40
2017-08-06T03:26:36.487Z,13.07
2017-08-06T03:29:05.383Z,13.00
2017-08-06T03:31:34.278Z,12.43
2017-08-06T03:34:03.178Z,12.90
2017-08-06T03:36:32.099Z,13.10
2017-08-06T03:39:00.991Z,12.90
2017-08-06T03:41:29.915Z,13.20
2017-08-06T03:43:58.789Z,13.93
2017-08-06T03:46:27.700Z,14.30
2017-08-06T03:48:56.577Z,13.60
2017-08-06T03:51:25.465Z,13.13
2017-08-06T03:53:54.335Z,14.00
2017-08-06T03:56:23.234Z,13.27
2017-08-06T03:58:52.126Z,12.80
2017-08-06T04:01:21.031Z,12.70
2017-08-06T04:03:49.933Z,13.63
2017-08-06T04:06:18.829Z,12.67
2017-08-06T04:08:47.712Z,11.20
2017-08-06T04:11:16.618Z,12.53
2017-08-06T04:13:45.505Z,12.10
2017-08-06T04:16:14.410Z,11.77
2017-08-06T04:18:43.303Z,11.37
2017-08-06T04:21:12.185Z,11.27
2017-08-06T04:23:41.079Z,12.00
2017-08-06T04:26:10.025Z,11.13
2017-08-06T04:28:38.940Z,11.50
2017-08-06T04:31:07.811Z,12.67
2017-08-06T04:33:36.730Z,11.60
2017-08-06T04:36:05.620Z,10.80
2017-08-06T04:38:34.524Z,12.50
2017-08-06T04:41:03.394Z,12.10
2017-08-06T04:43:32.281Z,10.13
2017-08-06T04:46:01.161Z,12.07
2017-08-06T04:48:30.061Z,12.40
2017-08-06T04:50:58.941Z,11.40
2017-08-06T04:53:27.843Z,12.40
2017-08-06T04:55:56.720Z,12.43
2017-08-06T04:58:25.613Z,11.53
2017-08-06T05:00:54.486Z,10.43
2017-08-06T05:03:23.354Z,8.50
2017-08-06T05:05:52.237Z,9.73
2017-08-06T05:08:21.110Z,9.40
2017-08-06T05:10:50.011Z,9.07
2017-08-06T05:13:18.888Z,13.20
2017-08-06T05:15:47.784Z,9.63
2017-08-06T05:18:16.664Z,7.83
2017-08-06T05:20:45.556Z,7.20
2017-08-06T05:23:14.443Z,6.20
2017-08-06T05:25:43.326Z,6.83
2017-08-06T05:28:12.198Z,8.00
2017-08-06T05:30:41.090Z,8.57
2017-08-06T05:33:09.976Z,6.77
2017-08-06T05:35:38.875Z,7.27
2017-08-06T05:38:07.759Z,6.20
2017-08-06T05:40:36.665Z,7.57
2017-08-06T05:43:05.534Z,6.80
2017-08-06T05:45:34.431Z,7.67
2017-08-06T05:48:03.301Z,7.40
2017-08-06T05:50:32.207Z,6.83
2017-08-06T05:53:01.077Z,5.87
2017-08-06T05:55:29.969Z,6.03
2017-08-06T05:57:58.847Z,6.13
2017-08-06T06:00:27.711Z,6.13
2017-08-06T06:02:56.594Z,5.33
2017-08-06T06:05:25.476Z,4.57
2017-08-06T06:07:54.362Z,4.53
2017-08-06T06:10:23.229Z,5.33
2017-08-06T06:12:52.109Z,5.00
2017-08-06T06:15:20.984Z,5.60
2017-08-06T06:17:49.870Z,4.70
2017-08-06T06:20:18.738Z,7.10
2017-08-06T06:22:47.634Z,4.10
2017-08-06T06:25:16.506Z,4.37
2017-08-06T06:27:45.408Z,5.67
2017-08-06T06:30:14.283Z,4.30
2017-08-06T06:32:43.170Z,4.10
2017-08-06T06:35:12.035Z,8.53
2017-08-06T06:37:40.922Z,6.63
2017-08-06T06:40:09.808Z,6.40
2017-08-06T06:42:38.709Z,5.17
2017-08-06T06:45:07.595Z,8.30
2017-08-06T06:47:36.487Z,4.47
2017-08-06T06:50:05.350Z,3.93
2017-08-06T06:52:34.238Z,5.47
2017-08-06T06:55:03.105Z,5.80
2017-08-06T06:57:32.008Z,4.77
2017-08-06T07:00:00.869Z,4.80
2017-08-06T07:02:29.758Z,4.50
2017-08-06T07:04:58.646Z,3.67
2017-08-06T07:07:27.551Z,3.97
2017-08-06T07:09:56.434Z,6.07
2017-08-06T07:12:25.350Z,4.50
2017-08-06T07:14:54.232Z,4.60
2017-08-06T07:17:23.099Z,4.80
2017-08-06T07:19:51.988Z,5.97
2017-08-06T07:22:20.876Z,2.87
2017-08-06T07:24:49.774Z,5.27
2017-08-06T07:27:18.663Z,2.90
2017-08-06T07:29:47.558Z,4.63
2017-08-06T07:32:16.430Z,4.20
2017-08-06T07:34:45.326Z,3.47
2017-08-06T07:37:14.190Z,3.90
2017-08-06T07:39:43.083Z,3.23
2017-08-06T07:42:11.963Z,4.13
2017-08-06T07:44:40.870Z,4.20
2017-08-06T07:47:09.737Z,2.60
2017-08-06T07:49:38.629Z,3.97
2017-08-06T07:52:07.539Z,3.83
2017-08-06T07:54:36.432Z,3.50
2017-08-06T07:57:05.305Z,1.90
2017-08-06T07:59:34.258Z,2.00
2017-08-06T08:02:03.169Z,3.10
2017-08-06T08:04:32.053Z,2.63
2017-08-06T08:07:00.961Z,2.43
2017-08-06T08:09:29.850Z,2.93
2017-08-06T08:11:58.764Z,2.20
2017-08-06T08:14:27.673Z,3.53
2017-08-06T08:16:56.573Z,2.60
2017-08-06T08:19:25.476Z,2.63
2017-08-06T08:21:54.359Z,2.00
2017-08-06T08:24:23.299Z,3.43
2017-08-06T08:26:52.175Z,1.77
2017-08-06T08:29:21.065Z,1.70
2017-08-06T08:31:49.933Z,1.53
2017-08-06T08:34:18.827Z,1.57
2017-08-06T08:36:47.755Z,1.93
2017-08-06T08:39:16.631Z,2.80
2017-08-06T08:41:45.518Z,1.97
2017-08-06T08:44:14.399Z,1.77
2017-08-06T08:46:43.286Z,2.07
2017-08-06T08:49:12.205Z,1.70
2017-08-06T08:51:41.115Z,3.27
2017-08-06T08:54:10.004Z,3.40
2017-08-06T08:56:38.890Z,1.57
2017-08-06T08:59:07.762Z,1.70
2017-08-06T09:01:36.675Z,2.43
2017-08-06T09:04:05.560Z,3.17
2017-08-06T09:06:34.460Z,4.50
2017-08-06T09:09:03.351Z,3.47
2017-08-06T09:11:32.243Z,3.70
2017-08-06T09:14:01.141Z,1.57
2017-08-06T09:16:30.048Z,2.43
2017-08-06T09:18:58.937Z,1.83
2017-08-06T09:21:27.835Z,3.20
2017-08-06T09:23:56.736Z,1.83
2017-08-06T09:26:25.640Z,2.67
2017-08-06T09:28:54.526Z,2.10
2017-08-06T09:31:23.437Z,2.65
2017-08-06T09:33:52.314Z,2.35
2017-08-06T09:36:21.208Z,2.17
2017-08-06T09:38:50.080Z,4.70
2017-08-06T09:41:18.976Z,2.67
2017-08-06T09:43:47.858Z,2.92
2017-08-06T09:46:16.731Z,2.95
2017-08-06T09:48:45.662Z,2.03
2017-08-06T09:53:49.974Z,1.95
2017-08-06T09:56:18.846Z,1.60
2017-08-06T09:58:47.739Z,3.28
2017-08-06T10:01:16.620Z,1.85
2017-08-06T10:03:45.506Z,1.77
2017-08-06T10:06:14.377Z,3.33
2017-08-06T10:08:43.275Z,2.30
2017-08-06T10:11:12.174Z,1.92
2017-08-06T10:13:41.067Z,2.20
2017-08-06T10:16:09.943Z,3.08
2017-08-06T10:18:38.844Z,2.33
2017-08-06T10:21:07.748Z,2.20
2017-08-06T10:23:36.658Z,2.40
2017-08-06T10:26:05.544Z,2.10
2017-08-06T10:28:34.443Z,2.58
2017-08-06T10:31:03.316Z,1.52
2017-08-06T10:33:32.212Z,1.62
2017-08-06T10:36:01.087Z,2.33
2017-08-06T10:38:29.992Z,2.03
2017-08-06T10:40:58.862Z,1.98
2017-08-06T10:43:27.755Z,3.05
2017-08-06T10:45:56.626Z,1.45
2017-08-06T10:48:25.526Z,2.67
2017-08-06T10:50:54.412Z,3.22
2017-08-06T10:53:23.305Z,1.40
2017-08-06T10:55:52.181Z,1.67
2017-08-06T10:58:21.073Z,1.98
2017-08-06T11:00:49.959Z,2.05
2017-08-06T11:03:18.846Z,2.45
2017-08-06T11:05:47.723Z,1.33
2017-08-06T11:08:16.603Z,1.85
2017-08-06T11:10:45.755Z,2.10
2017-08-06T11:13:14.629Z,1.30
2017-08-06T11:15:43.529Z,1.95
2017-08-06T11:18:12.402Z,2.30
2017-08-06T11:20:41.307Z,2.53
2017-08-06T11:23:10.179Z,2.05
2017-08-06T11:25:39.075Z,2.33
2017-08-06T11:28:07.956Z,1.52
2017-08-06T11:30:36.845Z,1.65
2017-08-06T11:33:05.718Z,1.40
2017-08-06T11:35:34.620Z,1.95
2017-08-06T11:38:03.518Z,3.45
2017-08-06T11:40:32.406Z,2.87
2017-08-06T11:43:01.286Z,1.15
2017-08-06T11:45:30.188Z,1.98
2017-08-06T11:47:59.066Z,3.17
2017-08-06T11:50:27.954Z,1.85
2017-08-06T11:52:56.821Z,1.92
2017-08-06T11:55:25.705Z,2.80
2017-08-06T11:57:54.579Z,3.10
2017-08-06T12:00:23.537Z,2.40
2017-08-06T12:02:52.410Z,1.53
2017-08-06T12:05:21.316Z,1.90
2017-08-06T12:07:50.189Z,1.37
2017-08-06T12:10:19.088Z,2.13
2017-08-06T12:12:47.971Z,1.67
2017-08-06T12:15:16.870Z,1.83
2017-08-06T12:17:45.756Z,2.53
2017-08-06T12:20:14.646Z,1.65
2017-08-06T12:22:43.542Z,3.03
2017-08-06T12:25:12.420Z,2.17
2017-08-06T12:27:41.314Z,4.43
2017-08-06T12:30:10.187Z,2.33
2017-08-06T12:32:39.070Z,2.22
2017-08-06T12:35:07.954Z,2.25
2017-08-06T12:37:36.846Z,2.08
2017-08-06T12:40:05.723Z,1.40
2017-08-06T12:42:34.620Z,2.03
2017-08-06T12:45:04.307Z,1.62
2017-08-06T12:47:33.190Z,2.08
2017-08-06T12:50:02.081Z,1.58
2017-08-06T12:52:30.983Z,1.55
2017-08-06T12:54:59.864Z,2.45
2017-08-06T12:57:28.762Z,3.55
2017-08-06T12:59:57.631Z,1.60
2017-08-06T13:02:26.532Z,2.33
2017-08-06T13:04:55.405Z,1.92
2017-08-06T13:07:24.298Z,1.85
2017-08-06T13:09:53.188Z,1.92
2017-08-06T13:12:22.091Z,1.25
2017-08-06T13:14:50.957Z,1.80
2017-08-06T13:17:20.091Z,1.35
2017-08-06T13:19:48.969Z,1.90
2017-08-06T13:22:17.854Z,1.27
2017-08-06T13:24:46.740Z,1.55
2017-08-06T13:27:15.624Z,1.33
2017-08-06T13:29:44.532Z,2.00
2017-08-06T13:32:13.402Z,1.67
2017-08-06T13:34:42.295Z,1.48
2017-08-06T13:37:11.167Z,2.45
2017-08-06T13:39:40.067Z,1.37
2017-08-06T13:42:08.947Z,0.98
2017-08-06T13:44:37.852Z,1.35
2017-08-06T13:47:06.733Z,2.50
2017-08-06T13:49:35.627Z,1.90
2017-08-06T13:52:04.726Z,2.15
2017-08-06T13:54:33.646Z,2.37
2017-08-06T13:57:02.518Z,2.25
2017-08-06T13:59:31.410Z,1.60
2017-08-06T14:02:00.282Z,1.50
2017-08-06T14:04:29.169Z,1.35
2017-08-06T14:06:58.047Z,1.80
2017-08-06T14:09:26.931Z,1.67
2017-08-06T14:11:55.799Z,1.93
2017-08-06T14:14:24.708Z,1.00
2017-08-06T14:16:53.573Z,2.20
2017-08-06T14:19:22.468Z,2.43
2017-08-06T14:21:51.355Z,2.27
2017-08-06T14:24:20.251Z,2.23
2017-08-06T14:26:49.132Z,3.20
2017-08-06T14:29:18.036Z,1.93
2017-08-06T14:31:46.914Z,1.00
2017-08-06T14:34:15.806Z,4.23
2017-08-06T14:36:44.686Z,1.93
2017-08-06T14:39:13.574Z,1.00
2017-08-06T14:41:42.455Z,1.10
2017-08-06T14:44:11.327Z,1.73
2017-08-06T14:46:40.235Z,1.50
2017-08-06T14:49:09.111Z,0.77
2017-08-06T14:51:37.992Z,1.10
2017-08-06T14:54:06.868Z,1.80
2017-08-06T14:56:35.753Z,2.80
2017-08-06T14:59:04.671Z,1.90
2017-08-06T15:01:33.557Z,2.93
2017-08-06T15:04:02.436Z,2.23
2017-08-06T15:06:31.336Z,1.90
2017-08-06T15:09:00.210Z,1.40
2017-08-06T15:11:29.115Z,1.40
2017-08-06T15:13:57.982Z,1.20
2017-08-06T15:16:26.885Z,1.73
2017-08-06T15:18:55.760Z,1.60
2017-08-06T15:21:24.652Z,2.43
2017-08-06T15:23:53.521Z,2.50
2017-08-06T15:26:22.414Z,2.10
2017-08-06T15:28:51.282Z,2.13
2017-08-06T15:31:20.190Z,3.20
2017-08-06T15:33:49.062Z,1.90
2017-08-06T15:36:17.946Z,2.57
2017-08-06T15:38:46.831Z,3.70
2017-08-06T15:41:15.719Z,2.23
2017-08-06T15:43:44.606Z,2.53
2017-08-06T15:46:13.497Z,1.50
2017-08-06T15:48:42.384Z,1.90
2017-08-06T15:51:11.288Z,2.03
2017-08-06T15:53:40.165Z,3.00
2017-08-06T15:56:09.043Z,2.03
2017-08-06T15:58:37.930Z,1.57
2017-08-06T16:01:06.816Z,2.57
2017-08-06T16:03:35.705Z,2.30
2017-08-06T16:06:04.614Z,2.30
2017-08-06T16:08:33.497Z,4.03
2017-08-06T16:11:02.366Z,1.90
2017-08-06T16:13:31.287Z,1.67
2017-08-06T16:16:00.168Z,5.80
2017-08-06T16:18:29.062Z,2.57
2017-08-06T16:20:57.948Z,3.27
2017-08-06T16:23:26.842Z,4.23
2017-08-06T16:25:55.734Z,2.37
2017-08-06T16:28:24.630Z,2.60
2017-08-06T16:30:53.508Z,2.07
2017-08-06T16:33:22.411Z,1.50
2017-08-06T16:35:51.278Z,3.63
2017-08-06T16:38:20.169Z,3.50
2017-08-06T16:40:49.038Z,2.47
2017-08-06T16:43:17.939Z,2.67
2017-08-06T16:45:46.810Z,2.83
2017-08-06T16:48:15.697Z,2.10
2017-08-06T16:50:44.565Z,6.30
2017-08-06T16:53:13.459Z,2.97
2017-08-06T16:55:42.325Z,1.40
2017-08-06T16:58:11.224Z,1.70
2017-08-06T17:00:40.100Z,2.00
2017-08-06T17:03:08.979Z,1.57
2017-08-06T17:05:37.871Z,2.40
2017-08-06T17:08:06.737Z,6.00
2017-08-06T17:10:35.622Z,2.33
2017-08-06T17:13:04.499Z,2.27
2017-08-06T17:15:33.398Z,2.30
2017-08-06T17:18:02.563Z,1.80
2017-08-06T17:20:31.445Z,2.13
2017-08-06T17:23:00.310Z,3.00
2017-08-06T17:25:29.204Z,1.90
2017-08-06T17:27:58.070Z,8.23
2017-08-06T17:30:26.963Z,1.80
2017-08-06T17:32:55.839Z,1.87
2017-08-06T17:35:24.738Z,2.30
2017-08-06T17:37:53.707Z,2.37
2017-08-06T17:40:22.831Z,1.90
2017-08-06T17:42:51.711Z,3.20
2017-08-06T17:45:20.598Z,1.70
2017-08-06T17:47:49.461Z,1.70
2017-08-06T17:50:18.365Z,1.67
2017-08-06T17:52:47.238Z,2.50
2017-08-06T17:55:16.122Z,1.67
2017-08-06T17:57:44.994Z,1.80
2017-08-06T18:00:13.897Z,2.53
2017-08-06T18:02:42.779Z,1.87
2017-08-06T18:05:11.678Z,3.10
2017-08-06T18:07:40.576Z,2.23
2017-08-06T18:10:09.442Z,1.60
2017-08-06T18:12:38.333Z,1.90
2017-08-06T18:15:07.211Z,1.53
2017-08-06T18:17:36.103Z,1.60
2017-08-06T18:20:04.978Z,2.67
2017-08-06T18:22:33.875Z,3.67
2017-08-06T18:25:02.752Z,2.03
2017-08-06T18:27:31.676Z,1.70
2017-08-06T18:30:00.572Z,3.87
2017-08-06T18:32:29.459Z,1.73
2017-08-06T18:34:58.322Z,2.87
2017-08-06T18:37:27.226Z,2.90
2017-08-06T18:39:56.116Z,1.63
2017-08-06T18:42:25.014Z,2.77
2017-08-06T18:44:53.886Z,5.13
2017-08-06T18:47:22.788Z,2.20
2017-08-06T18:49:51.658Z,2.40
2017-08-06T18:52:20.547Z,1.90
2017-08-06T18:54:49.428Z,2.30
2017-08-06T18:57:18.313Z,2.63
2017-08-06T18:59:47.181Z,4.10
2017-08-06T19:02:16.100Z,5.57
2017-08-06T19:04:44.976Z,2.10
2017-08-06T19:07:13.875Z,3.73
2017-08-06T19:09:42.766Z,4.03
2017-08-06T19:12:11.650Z,2.40
2017-08-06T19:14:40.543Z,1.93
2017-08-06T19:17:09.443Z,1.90
2017-08-06T19:19:38.310Z,2.40
2017-08-06T19:22:07.177Z,2.77
2017-08-06T19:24:36.083Z,2.40
2017-08-06T19:27:04.965Z,2.13
2017-08-06T19:29:33.874Z,2.60
2017-08-06T19:32:02.753Z,2.70
2017-08-06T19:34:31.647Z,2.30
2017-08-06T19:37:00.531Z,1.67
2017-08-06T19:39:29.426Z,3.07
2017-08-06T19:41:58.309Z,3.70
2017-08-06T19:44:27.223Z,2.47
2017-08-06T19:46:56.102Z,3.23
2017-08-06T19:49:24.995Z,3.57
2017-08-06T19:51:53.876Z,3.10
2017-08-06T19:54:22.779Z,2.30
2017-08-06T19:56:51.655Z,3.20
2017-08-06T19:59:20.531Z,2.13
2017-08-06T20:01:49.426Z,2.40
2017-08-06T20:04:18.294Z,2.77
2017-08-06T20:06:47.182Z,2.63
2017-08-06T20:09:16.049Z,4.07
2017-08-06T20:11:44.930Z,2.70
2017-08-06T20:14:13.819Z,2.60
2017-08-06T20:16:42.729Z,3.87
2017-08-06T20:19:11.602Z,2.90
2017-08-06T20:21:40.494Z,4.03
2017-08-06T20:24:09.366Z,2.80
2017-08-06T20:26:38.262Z,3.20
2017-08-06T20:29:07.138Z,5.97
2017-08-06T20:31:36.021Z,3.87
2017-08-06T20:34:04.890Z,3.10
2017-08-06T20:36:33.774Z,3.90
2017-08-06T20:39:02.654Z,4.20
2017-08-06T20:41:31.542Z,21.70
2017-08-06T20:44:00.434Z,10.77
2017-08-06T20:46:29.337Z,6.40
2017-08-06T20:48:58.233Z,5.10
2017-08-06T20:51:27.116Z,5.20
2017-08-06T20:53:56.002Z,3.90
2017-08-06T20:56:24.866Z,4.37
2017-08-06T20:58:53.749Z,3.33
2017-08-06T21:01:22.632Z,4.00
2017-08-06T21:03:51.527Z,3.40
2017-08-06T21:06:20.403Z,4.33
2017-08-06T21:08:49.303Z,3.77
2017-08-06T21:11:18.174Z,5.00
2017-08-06T21:13:47.071Z,6.53
2017-08-06T21:16:15.940Z,5.30
2017-08-06T21:18:44.844Z,3.97
2017-08-06T21:21:13.718Z,6.00
2017-08-06T21:23:42.610Z,3.40
2017-08-06T21:26:11.489Z,3.70
2017-08-06T21:28:40.392Z,4.07
2017-08-06T21:31:09.276Z,3.50
2017-08-06T21:33:38.158Z,3.43
2017-08-06T21:36:07.029Z,5.40
2017-08-06T21:38:35.919Z,6.83
2017-08-06T21:41:04.786Z,4.60
2017-08-06T21:43:33.685Z,4.03
2017-08-06T21:46:02.557Z,4.20
2017-08-06T21:48:31.450Z,5.20
2017-08-06T21:51:00.317Z,6.10
2017-08-06T21:53:29.215Z,8.97
2017-08-06T21:55:58.104Z,7.30
2017-08-06T21:58:26.987Z,6.60
2017-08-06T22:00:55.868Z,4.60
2017-08-06T22:03:24.762Z,10.17
2017-08-06T22:05:53.635Z,5.70
2017-08-06T22:08:22.526Z,4.20
2017-08-06T22:10:51.419Z,4.40
2017-08-06T22:13:20.296Z,6.93
2017-08-06T22:15:49.205Z,4.30
2017-08-06T22:18:18.091Z,3.07
2017-08-06T22:20:46.997Z,3.97
2017-08-06T22:23:15.876Z,4.50
2017-08-06T22:25:44.770Z,3.47
2017-08-06T22:28:13.648Z,4.93
2017-08-06T22:30:42.557Z,3.53
2017-08-06T22:33:11.435Z,4.97
2017-08-06T22:35:40.342Z,3.90
2017-08-06T22:38:09.223Z,3.03
2017-08-06T22:40:38.119Z,3.13
2017-08-06T22:43:07.000Z,5.10
2017-08-06T22:45:35.895Z,4.67
2017-08-06T22:48:04.775Z,3.73
2017-08-06T22:50:33.679Z,3.07
2017-08-06T22:53:02.555Z,3.60
2017-08-06T22:55:31.446Z,4.10
2017-08-06T22:58:00.319Z,3.33
2017-08-06T23:00:29.213Z,2.90
2017-08-06T23:02:58.112Z,6.20
2017-08-06T23:05:26.993Z,3.67
2017-08-06T23:07:55.883Z,3.80
2017-08-06T23:10:24.755Z,3.43
2017-08-06T23:12:53.660Z,3.30
2017-08-06T23:15:22.543Z,4.63
2017-08-06T23:17:51.442Z,5.90
2017-08-06T23:20:20.325Z,5.47
2017-08-06T23:22:49.224Z,4.40
2017-08-06T23:25:18.103Z,4.43
2017-08-06T23:27:46.994Z,3.83
2017-08-06T23:30:15.880Z,4.20
2017-08-06T23:32:44.772Z,3.87
2017-08-06T23:35:13.651Z,3.80
2017-08-06T23:37:42.559Z,4.20
2017-08-06T23:40:11.426Z,4.57
2017-08-06T23:42:40.315Z,5.30
2017-08-06T23:45:09.199Z,3.37
2017-08-06T23:47:38.094Z,6.00
2017-08-06T23:50:06.976Z,4.50
2017-08-06T23:52:35.876Z,5.53
2017-08-06T23:55:04.744Z,8.03
2017-08-06T23:57:33.639Z,5.40
